GMMC/CAS METAR and TAF weather

Enter ICAO airport designator
Station Type Date Time Source
GMMC METAR 2021/08/04 19:00 UTC NOAA

GMMC 041900Z 36010KT 9999 SCT016 BKN026 23/20 Q1017


Station Type Date Time Source
GMMC Decoded METAR 2021/08/04 19:00 UTC NOAA

Casablanca, Morocco (GMMC) 33-34N 007-40W 62M
Aug 04, 2021 - 03:00 PM EDT / 2021.08.04 1900 UTC
Wind: from the N (360 degrees) at 12 MPH (10 KT):0
Visibility: greater than 7 mile(s):0
Sky conditions: mostly cloudy
Temperature: 73 F (23 C)
Dew Point: 68 F (20 C)
Relative Humidity: 83%
Pressure (altimeter): 30.03 in. Hg (1017 hPa)
ob: GMMC 041900Z 36010KT 9999 SCT016 BKN026 23/20 Q1017
cycle: 19

Station Type Date Time Source
GMMC TAF 2016/05/22 17:00 UTC NOAA

FTMC31 GMMC 221700 RRA TAF LPPT 221700Z 2218/2324 34013KT CAVOK
BECMG 2221/2224 34007KT
BECMG 2310/2312 VRB03KT

Example: see airport list